createdAt,value
2023-03-31T00:01:23.811Z,18.35
2023-03-31T00:03:50.287Z,18.33
2023-03-31T00:06:16.757Z,18.32
2023-03-31T00:08:44.184Z,18.29
2023-03-31T00:11:10.610Z,18.29
2023-03-31T00:13:37.002Z,18.26
2023-03-31T00:16:04.018Z,18.25
2023-03-31T00:18:30.693Z,18.22
2023-03-31T00:20:57.097Z,18.20
2023-03-31T00:23:23.556Z,18.19
2023-03-31T00:25:49.846Z,18.17
2023-03-31T00:28:16.291Z,18.15
2023-03-31T00:30:42.755Z,18.13
2023-03-31T00:33:09.036Z,18.12
2023-03-31T00:35:35.475Z,18.10
2023-03-31T00:38:01.751Z,18.08
2023-03-31T00:40:28.059Z,18.05
2023-03-31T00:42:57.328Z,18.03
2023-03-31T00:45:23.715Z,18.01
2023-03-31T00:47:50.064Z,17.99
2023-03-31T00:50:19.558Z,17.98
2023-03-31T00:52:45.869Z,17.95
2023-03-31T00:55:12.154Z,17.94
2023-03-31T00:57:38.517Z,17.92
2023-03-31T01:00:04.854Z,17.92
2023-03-31T01:02:31.364Z,17.89
2023-03-31T01:04:57.727Z,17.88
2023-03-31T01:07:24.060Z,17.87
2023-03-31T01:09:50.363Z,17.84
2023-03-31T01:12:16.877Z,17.83
2023-03-31T01:14:43.202Z,17.81
2023-03-31T01:17:09.823Z,17.80
2023-03-31T01:19:36.396Z,17.77
2023-03-31T01:22:02.741Z,17.75
2023-03-31T01:24:29.304Z,17.73
2023-03-31T01:26:55.660Z,17.72
2023-03-31T01:29:21.975Z,17.69
2023-03-31T01:31:48.448Z,17.67
2023-03-31T01:34:14.882Z,17.66
2023-03-31T01:36:41.152Z,17.64
2023-03-31T01:39:07.517Z,17.62
2023-03-31T01:41:33.847Z,17.60
2023-03-31T01:44:00.137Z,17.60
2023-03-31T01:46:26.514Z,17.57
2023-03-31T01:48:52.836Z,17.57
2023-03-31T01:51:19.267Z,17.55
2023-03-31T01:53:45.796Z,17.53
2023-03-31T01:56:12.050Z,17.53
2023-03-31T01:58:38.459Z,17.53
2023-03-31T02:01:04.864Z,17.52
2023-03-31T02:03:31.441Z,17.51
2023-03-31T02:05:57.986Z,17.49
2023-03-31T02:08:24.324Z,17.47
2023-03-31T02:10:50.630Z,17.46
2023-03-31T02:13:16.989Z,17.44
2023-03-31T02:15:43.320Z,17.43
2023-03-31T02:18:09.607Z,17.40
2023-03-31T02:20:35.993Z,17.39
2023-03-31T02:23:02.298Z,17.38
2023-03-31T02:25:28.618Z,17.39
2023-03-31T02:27:54.900Z,17.37
2023-03-31T02:30:21.171Z,17.34
2023-03-31T02:32:47.486Z,17.32
2023-03-31T02:35:13.915Z,17.30
2023-03-31T02:37:40.325Z,17.30
2023-03-31T02:40:06.730Z,17.29
2023-03-31T02:42:33.181Z,17.27
2023-03-31T02:44:59.705Z,17.26
2023-03-31T02:47:26.148Z,17.23
2023-03-31T02:49:52.562Z,17.22
2023-03-31T02:52:19.167Z,17.21
2023-03-31T02:54:47.352Z,17.20
2023-03-31T02:57:13.807Z,17.19
2023-03-31T02:59:40.147Z,17.18
2023-03-31T03:02:06.667Z,17.18
2023-03-31T03:04:33.136Z,17.17
2023-03-31T03:06:59.553Z,17.15
2023-03-31T03:12:12.793Z,17.14
2023-03-31T03:15:38.860Z,17.13
2023-03-31T03:18:24.045Z,17.12
2023-03-31T03:21:04.444Z,17.11
2023-03-31T03:23:37.465Z,17.13
2023-03-31T03:26:04.066Z,17.17
2023-03-31T03:28:30.536Z,17.19
2023-03-31T03:30:57.106Z,17.13
2023-03-31T03:33:23.510Z,17.17
2023-03-31T03:35:49.863Z,17.15
2023-03-31T03:38:16.164Z,17.12
2023-03-31T03:40:42.478Z,17.09
2023-03-31T03:43:08.913Z,17.08
2023-03-31T03:45:35.306Z,17.05
2023-03-31T03:48:01.704Z,17.03
2023-03-31T03:50:28.057Z,16.98
2023-03-31T03:52:55.887Z,16.99
2023-03-31T03:55:22.263Z,16.99
2023-03-31T03:57:48.575Z,16.96
2023-03-31T04:00:15.049Z,16.94
2023-03-31T04:02:41.471Z,16.92
2023-03-31T04:05:08.002Z,16.91
2023-03-31T04:07:34.281Z,16.89
2023-03-31T04:16:09.958Z,16.83
2023-03-31T04:18:37.789Z,16.82
2023-03-31T04:21:04.166Z,16.79
2023-03-31T04:23:30.680Z,16.79
2023-03-31T04:25:56.988Z,16.77
2023-03-31T04:28:23.238Z,16.75
2023-03-31T04:30:49.484Z,16.74
2023-03-31T04:33:15.833Z,16.72
2023-03-31T04:35:42.216Z,16.71
2023-03-31T04:38:08.671Z,16.71
2023-03-31T04:40:34.991Z,16.69
2023-03-31T04:43:04.146Z,16.68
2023-03-31T04:45:30.485Z,16.67
2023-03-31T04:47:56.826Z,16.65
2023-03-31T04:50:23.202Z,16.64
2023-03-31T04:52:49.476Z,16.62
2023-03-31T04:55:15.745Z,16.61
2023-03-31T04:57:42.003Z,16.60
2023-03-31T05:00:08.394Z,16.59
2023-03-31T05:02:39.298Z,16.57
2023-03-31T05:05:26.492Z,16.56
2023-03-31T05:07:52.941Z,16.55
2023-03-31T05:10:19.420Z,16.54
2023-03-31T05:12:45.743Z,16.56
2023-03-31T05:15:11.998Z,16.55
2023-03-31T05:17:38.268Z,16.55
2023-03-31T05:20:04.610Z,16.54
2023-03-31T05:22:31.066Z,16.54
2023-03-31T05:24:57.340Z,16.53
2023-03-31T05:27:23.650Z,16.51
2023-03-31T05:29:49.953Z,16.51
2023-03-31T05:32:16.190Z,16.50
2023-03-31T05:34:42.645Z,16.50
2023-03-31T05:37:09.081Z,16.48
2023-03-31T05:39:35.546Z,16.47
2023-03-31T05:42:01.907Z,16.46
2023-03-31T05:44:28.713Z,16.46
2023-03-31T05:46:55.236Z,16.43
2023-03-31T05:49:21.593Z,16.43
2023-03-31T05:51:47.875Z,16.41
2023-03-31T05:54:14.319Z,16.40
2023-03-31T05:56:40.657Z,16.38
2023-03-31T05:59:07.017Z,16.38
2023-03-31T06:01:33.494Z,16.39
2023-03-31T06:03:59.920Z,16.37
2023-03-31T06:06:26.273Z,16.38
2023-03-31T06:08:52.855Z,16.38
2023-03-31T06:11:19.709Z,16.39
2023-03-31T06:13:46.027Z,16.41
2023-03-31T06:16:12.596Z,16.43
2023-03-31T06:18:39.044Z,16.42
2023-03-31T06:21:05.794Z,16.49
2023-03-31T06:23:32.973Z,16.65
2023-03-31T06:25:59.336Z,16.86
2023-03-31T06:28:25.834Z,17.07
2023-03-31T06:30:52.166Z,17.22
2023-03-31T06:33:18.483Z,17.37
2023-03-31T06:35:44.917Z,17.49
2023-03-31T06:38:11.292Z,17.63
2023-03-31T06:40:37.660Z,17.74
2023-03-31T06:43:03.928Z,17.84
2023-03-31T06:45:32.470Z,17.93
2023-03-31T06:47:58.982Z,17.99
2023-03-31T06:50:25.328Z,18.07
2023-03-31T06:52:51.767Z,18.13
2023-03-31T06:55:18.132Z,18.18
2023-03-31T06:57:44.512Z,18.21
2023-03-31T07:00:13.874Z,18.25
2023-03-31T07:02:40.292Z,18.29
2023-03-31T07:05:06.739Z,18.32
2023-03-31T07:07:33.223Z,18.36
2023-03-31T07:09:59.532Z,18.40
2023-03-31T07:12:25.832Z,18.42
2023-03-31T07:14:52.269Z,18.45
2023-03-31T07:17:18.694Z,18.49
2023-03-31T07:19:45.061Z,18.52
2023-03-31T07:22:11.356Z,18.54
2023-03-31T07:24:41.200Z,18.59
2023-03-31T07:27:14.511Z,18.63
2023-03-31T07:29:40.874Z,18.66
2023-03-31T07:32:07.300Z,18.70
2023-03-31T07:34:36.220Z,18.70
2023-03-31T07:37:03.708Z,18.72
2023-03-31T07:39:30.070Z,18.73
2023-03-31T07:41:56.591Z,18.74
2023-03-31T07:44:22.875Z,18.77
2023-03-31T07:46:49.598Z,18.78
2023-03-31T07:49:15.904Z,18.78
2023-03-31T07:51:42.293Z,18.79
2023-03-31T07:54:08.661Z,18.80
2023-03-31T07:56:35.157Z,18.81
2023-03-31T07:59:01.477Z,18.82
2023-03-31T08:01:28.518Z,18.83
2023-03-31T08:03:55.014Z,18.84
2023-03-31T08:06:21.497Z,18.85
2023-03-31T08:08:48.239Z,18.86
2023-03-31T08:11:14.466Z,18.88
2023-03-31T08:13:40.726Z,18.90
2023-03-31T08:16:07.568Z,18.90
2023-03-31T08:18:34.125Z,18.91
2023-03-31T08:21:00.418Z,18.92
2023-03-31T08:23:27.225Z,18.92
2023-03-31T08:25:53.571Z,18.93
2023-03-31T08:28:20.047Z,18.94
2023-03-31T08:30:46.358Z,18.94
2023-03-31T08:33:15.777Z,18.95
2023-03-31T08:35:42.063Z,18.94
2023-03-31T08:38:08.396Z,18.94
2023-03-31T08:40:34.820Z,18.93
2023-03-31T08:43:01.121Z,18.93
2023-03-31T08:45:27.458Z,18.94
2023-03-31T08:47:53.924Z,18.93
2023-03-31T08:50:20.366Z,18.93
2023-03-31T08:52:46.647Z,18.94
2023-03-31T08:55:13.030Z,18.94
2023-03-31T08:57:39.508Z,18.94
2023-03-31T09:00:05.789Z,18.95
2023-03-31T09:02:32.277Z,18.95
2023-03-31T09:04:58.674Z,18.94
2023-03-31T09:07:24.991Z,18.93
2023-03-31T09:09:51.489Z,18.92
2023-03-31T09:12:17.774Z,18.94
2023-03-31T09:14:44.401Z,18.94
2023-03-31T09:17:10.935Z,18.96
2023-03-31T09:19:37.345Z,18.96
2023-03-31T09:22:03.625Z,18.99
2023-03-31T09:24:32.198Z,19.02
2023-03-31T09:26:59.135Z,19.05
2023-03-31T09:29:25.417Z,19.10
2023-03-31T09:31:51.912Z,19.14
2023-03-31T09:34:18.241Z,19.18
2023-03-31T09:36:44.544Z,19.21
2023-03-31T09:39:10.936Z,19.20
2023-03-31T09:41:37.421Z,19.23
2023-03-31T09:44:03.815Z,19.25
2023-03-31T09:46:30.396Z,19.26
2023-03-31T09:48:56.792Z,19.28
2023-03-31T09:51:23.121Z,19.29
2023-03-31T09:53:49.534Z,19.29
2023-03-31T09:56:15.885Z,19.29
2023-03-31T09:58:42.239Z,19.30
2023-03-31T10:01:09.442Z,19.31
2023-03-31T10:03:36.117Z,19.30
2023-03-31T10:06:02.747Z,19.31
2023-03-31T10:08:29.097Z,19.31
2023-03-31T10:10:55.620Z,19.33
2023-03-31T10:13:22.328Z,19.34
2023-03-31T10:15:48.687Z,19.35
2023-03-31T10:18:15.260Z,19.37
2023-03-31T10:20:41.727Z,19.40
2023-03-31T10:23:08.846Z,19.44
2023-03-31T10:25:35.191Z,19.47
2023-03-31T10:28:01.569Z,19.50
2023-03-31T10:30:28.087Z,19.54
2023-03-31T10:32:54.905Z,19.58
2023-03-31T10:35:21.548Z,19.63
2023-03-31T10:37:47.951Z,19.65
2023-03-31T10:40:14.397Z,19.71
2023-03-31T10:42:40.767Z,19.79
2023-03-31T10:45:07.203Z,19.87
2023-03-31T10:47:33.758Z,19.97
2023-03-31T10:50:00.223Z,20.03
2023-03-31T10:52:26.659Z,20.09
2023-03-31T10:54:53.026Z,20.15
2023-03-31T10:57:19.499Z,20.23
2023-03-31T10:59:45.967Z,20.29
2023-03-31T11:02:12.450Z,20.27
2023-03-31T11:04:38.807Z,20.30
2023-03-31T11:07:05.070Z,20.36
2023-03-31T11:09:31.510Z,20.37
2023-03-31T11:11:57.866Z,20.39
2023-03-31T11:14:24.186Z,20.46
2023-03-31T11:16:52.581Z,20.51
2023-03-31T11:19:19.037Z,20.54
2023-03-31T11:21:45.816Z,20.51
2023-03-31T11:24:12.280Z,20.54
2023-03-31T11:26:38.604Z,20.54
2023-03-31T11:29:05.001Z,20.57
2023-03-31T11:31:31.369Z,20.61
2023-03-31T11:33:57.889Z,20.64
2023-03-31T11:36:25.054Z,20.67
2023-03-31T11:38:51.794Z,20.73
2023-03-31T11:41:18.087Z,20.79
2023-03-31T11:43:44.630Z,20.84
2023-03-31T11:46:11.139Z,20.88
2023-03-31T11:48:37.508Z,20.87
2023-03-31T11:51:03.801Z,20.92
2023-03-31T11:53:30.092Z,20.89
2023-03-31T11:55:59.488Z,20.90
2023-03-31T11:58:25.868Z,20.93
2023-03-31T12:00:52.178Z,20.90
2023-03-31T12:03:18.557Z,20.91
2023-03-31T12:05:45.007Z,20.90
2023-03-31T12:08:12.477Z,20.94
2023-03-31T12:10:38.939Z,20.99
2023-03-31T12:13:05.315Z,21.02
2023-03-31T12:15:31.649Z,21.08
2023-03-31T12:17:58.035Z,21.14
2023-03-31T12:20:25.705Z,21.11
2023-03-31T12:22:52.363Z,21.14
2023-03-31T12:25:18.887Z,21.19
2023-03-31T12:27:45.275Z,21.22
2023-03-31T12:30:11.755Z,21.24
2023-03-31T12:32:38.050Z,21.26
2023-03-31T12:35:04.445Z,21.27
2023-03-31T12:37:30.792Z,21.30
2023-03-31T12:39:57.190Z,21.29
2023-03-31T12:42:25.108Z,21.29
2023-03-31T12:44:51.576Z,21.34
2023-03-31T12:47:17.970Z,21.42
2023-03-31T12:49:44.843Z,21.42
2023-03-31T12:52:18.333Z,21.39
2023-03-31T12:54:44.745Z,21.38
2023-03-31T12:57:11.216Z,21.36
2023-03-31T12:59:40.180Z,21.40
2023-03-31T13:02:06.621Z,21.43
2023-03-31T13:04:33.123Z,21.41
2023-03-31T13:06:59.668Z,21.43
2023-03-31T13:09:26.119Z,21.51
2023-03-31T13:11:52.572Z,21.54
2023-03-31T13:14:19.021Z,21.50
2023-03-31T13:16:45.650Z,21.48
2023-03-31T13:19:12.234Z,21.48
2023-03-31T13:21:38.774Z,21.47
2023-03-31T13:24:05.332Z,21.46
2023-03-31T13:26:31.919Z,21.48
2023-03-31T13:28:58.312Z,21.49
2023-03-31T13:31:24.671Z,21.48
2023-03-31T13:33:51.085Z,21.47
2023-03-31T13:36:17.525Z,21.46
2023-03-31T13:38:43.976Z,21.44
2023-03-31T13:41:10.449Z,21.44
2023-03-31T13:43:36.866Z,21.49
2023-03-31T13:46:03.529Z,21.51
2023-03-31T13:48:29.863Z,21.54
2023-03-31T13:50:56.277Z,21.56
2023-03-31T13:53:41.170Z,21.61
2023-03-31T13:56:07.813Z,21.63
2023-03-31T13:58:35.623Z,21.64
2023-03-31T14:01:05.706Z,21.65
2023-03-31T14:03:32.187Z,21.64
2023-03-31T14:05:58.703Z,21.62
2023-03-31T14:08:26.148Z,21.60
2023-03-31T14:10:52.481Z,21.58
2023-03-31T14:13:19.043Z,21.56
2023-03-31T14:15:45.674Z,21.55
2023-03-31T14:18:12.103Z,21.53
2023-03-31T14:20:39.096Z,21.50
2023-03-31T14:23:05.491Z,21.48
2023-03-31T14:25:32.053Z,21.47
2023-03-31T14:27:58.539Z,21.43
2023-03-31T14:30:24.906Z,21.40
2023-03-31T14:32:51.388Z,21.36
2023-03-31T14:35:18.298Z,21.34
2023-03-31T14:37:44.741Z,21.32
2023-03-31T14:40:11.165Z,21.30
2023-03-31T14:42:37.530Z,21.27
2023-03-31T14:45:03.908Z,21.27
2023-03-31T14:47:30.387Z,21.26
2023-03-31T14:49:57.029Z,21.26
2023-03-31T14:52:23.857Z,21.27
2023-03-31T14:54:50.378Z,21.25
2023-03-31T14:57:16.902Z,21.24
2023-03-31T14:59:43.360Z,21.23
2023-03-31T15:02:09.998Z,21.23
2023-03-31T15:04:42.458Z,21.23
2023-03-31T15:07:09.885Z,21.22
2023-03-31T15:09:36.318Z,21.22
2023-03-31T15:12:02.968Z,21.21
2023-03-31T15:14:29.734Z,21.19
2023-03-31T15:16:56.222Z,21.17
2023-03-31T15:19:22.774Z,21.18
2023-03-31T15:21:49.364Z,21.18
2023-03-31T15:24:15.761Z,21.18
2023-03-31T15:26:42.251Z,21.18
2023-03-31T15:29:08.638Z,21.18
2023-03-31T15:31:35.113Z,21.19
2023-03-31T15:34:01.716Z,21.19
2023-03-31T15:36:28.325Z,21.18
2023-03-31T15:38:54.672Z,21.19
2023-03-31T15:41:21.042Z,21.19
2023-03-31T15:43:47.418Z,21.18
2023-03-31T15:46:13.818Z,21.17
2023-03-31T15:48:40.170Z,21.16
2023-03-31T15:51:08.426Z,21.15
2023-03-31T15:53:35.059Z,21.14
2023-03-31T15:56:04.548Z,21.13
2023-03-31T15:58:30.854Z,21.13
2023-03-31T16:00:57.136Z,21.11
2023-03-31T16:03:24.272Z,21.10
2023-03-31T16:05:54.476Z,21.08
2023-03-31T16:08:21.198Z,21.08
2023-03-31T16:10:47.458Z,21.08
2023-03-31T16:13:13.760Z,21.07
2023-03-31T16:15:40.041Z,21.05
2023-03-31T16:18:06.426Z,21.03
2023-03-31T16:20:32.781Z,21.02
2023-03-31T16:22:59.152Z,21.00
2023-03-31T16:25:25.450Z,20.98
2023-03-31T16:27:51.712Z,20.97
2023-03-31T16:30:18.191Z,20.96
2023-03-31T16:32:44.595Z,20.94
2023-03-31T16:35:10.884Z,20.92
2023-03-31T16:37:37.310Z,20.91
2023-03-31T16:40:03.568Z,20.90
2023-03-31T16:42:29.803Z,20.88
2023-03-31T16:45:12.560Z,20.85
2023-03-31T16:47:41.526Z,20.84
2023-03-31T16:50:10.178Z,20.82
2023-03-31T16:52:36.940Z,20.78
2023-03-31T16:55:03.570Z,20.77
2023-03-31T16:57:30.552Z,20.75
2023-03-31T16:59:58.865Z,20.72
2023-03-31T17:02:25.573Z,20.71
2023-03-31T17:04:54.265Z,20.68
2023-03-31T17:07:22.987Z,20.66
2023-03-31T17:09:49.312Z,20.64
2023-03-31T17:12:15.729Z,20.62
2023-03-31T17:14:42.066Z,20.60
2023-03-31T17:17:08.474Z,20.57
2023-03-31T17:19:34.852Z,20.56
2023-03-31T17:22:01.160Z,20.53
2023-03-31T17:24:27.533Z,20.50
2023-03-31T17:26:54.044Z,20.49
2023-03-31T17:29:20.361Z,20.47
2023-03-31T17:31:46.707Z,20.44
2023-03-31T17:34:13.161Z,20.43
2023-03-31T17:36:39.557Z,20.40
2023-03-31T17:39:05.985Z,20.40
2023-03-31T17:41:32.358Z,20.37
2023-03-31T17:43:58.790Z,20.36
2023-03-31T17:46:25.126Z,20.34
2023-03-31T17:48:51.498Z,20.34
2023-03-31T17:51:17.841Z,20.33
2023-03-31T17:53:44.178Z,20.34
2023-03-31T17:56:10.521Z,20.34
2023-03-31T17:58:36.984Z,20.35
2023-03-31T18:01:05.730Z,20.33
2023-03-31T18:03:32.237Z,20.33
2023-03-31T18:05:59.072Z,20.31
2023-03-31T18:08:25.381Z,20.31
2023-03-31T18:10:51.734Z,20.31
2023-03-31T18:13:18.031Z,20.30
2023-03-31T18:15:44.424Z,20.29
2023-03-31T18:18:10.859Z,20.28
2023-03-31T18:20:37.441Z,20.27
2023-03-31T18:23:04.093Z,20.26
2023-03-31T18:25:30.573Z,20.25
2023-03-31T18:27:57.021Z,20.26
2023-03-31T18:30:23.353Z,20.26
2023-03-31T18:32:49.802Z,20.25
2023-03-31T18:35:16.761Z,20.24
2023-03-31T18:37:43.261Z,20.23
2023-03-31T18:40:09.588Z,20.23
2023-03-31T18:42:36.031Z,20.22
2023-03-31T18:45:02.369Z,20.23
2023-03-31T18:47:28.798Z,20.23
2023-03-31T18:49:55.228Z,20.22
2023-03-31T18:52:21.656Z,20.22
2023-03-31T18:54:48.338Z,20.21
2023-03-31T18:57:14.719Z,20.21
2023-03-31T18:59:41.074Z,20.21
2023-03-31T19:02:07.481Z,20.19
2023-03-31T19:04:33.847Z,20.19
2023-03-31T19:07:00.176Z,20.17
2023-03-31T19:09:26.559Z,20.14
2023-03-31T19:11:52.974Z,20.14
2023-03-31T19:14:19.280Z,20.13
2023-03-31T19:16:45.728Z,20.12
2023-03-31T19:19:12.115Z,20.11
2023-03-31T19:21:38.555Z,20.10
2023-03-31T19:24:05.140Z,20.10
2023-03-31T19:26:31.440Z,20.08
2023-03-31T19:28:57.874Z,20.09
2023-03-31T19:31:24.375Z,20.07
2023-03-31T19:33:50.722Z,20.06
2023-03-31T19:36:17.163Z,20.06
2023-03-31T19:38:43.640Z,20.05
2023-03-31T19:41:10.127Z,20.06
2023-03-31T19:43:36.541Z,20.06
2023-03-31T19:46:03.074Z,20.07
2023-03-31T19:48:29.501Z,20.09
2023-03-31T19:50:55.850Z,20.09
2023-03-31T19:53:22.290Z,20.10
2023-03-31T19:55:48.839Z,20.12
2023-03-31T19:58:15.228Z,20.11
2023-03-31T20:00:41.538Z,20.12
2023-03-31T20:03:08.200Z,20.11
2023-03-31T20:05:34.843Z,20.12
2023-03-31T20:08:01.816Z,20.11
2023-03-31T20:10:28.760Z,20.12
2023-03-31T20:12:55.390Z,20.11
2023-03-31T20:15:21.872Z,20.10
2023-03-31T20:17:51.508Z,20.09
2023-03-31T20:20:18.016Z,20.08
2023-03-31T20:22:44.598Z,20.09
2023-03-31T20:25:12.164Z,20.08
2023-03-31T20:27:38.770Z,20.09
2023-03-31T20:30:06.103Z,20.10
2023-03-31T20:32:32.737Z,20.10
2023-03-31T20:34:59.191Z,20.10
2023-03-31T20:37:25.712Z,20.09
2023-03-31T20:39:52.108Z,20.09
2023-03-31T20:42:18.467Z,20.08
2023-03-31T20:44:45.142Z,20.07
2023-03-31T20:47:20.345Z,20.07
2023-03-31T20:49:46.940Z,20.06
2023-03-31T20:52:13.500Z,20.04
2023-03-31T20:54:39.952Z,20.03
2023-03-31T20:57:06.309Z,20.02
2023-03-31T20:59:32.649Z,20.02
2023-03-31T21:01:58.888Z,20.00
2023-03-31T21:04:25.321Z,19.99
2023-03-31T21:06:52.702Z,19.99
2023-03-31T21:09:19.219Z,19.99
2023-03-31T21:11:45.599Z,19.98
2023-03-31T21:14:11.916Z,19.97
2023-03-31T21:16:38.681Z,19.97
2023-03-31T21:19:05.155Z,19.95
2023-03-31T21:21:34.608Z,19.96
2023-03-31T21:24:01.095Z,19.95
2023-03-31T21:26:27.576Z,19.94
2023-03-31T21:28:54.011Z,19.93
2023-03-31T21:31:20.509Z,19.92
2023-03-31T21:33:47.092Z,19.93
2023-03-31T21:36:13.875Z,19.91
2023-03-31T21:38:40.278Z,19.90
2023-03-31T21:41:06.624Z,19.89
2023-03-31T21:43:33.054Z,19.89
2023-03-31T21:45:59.387Z,19.88
2023-03-31T21:48:25.837Z,19.87
2023-03-31T21:50:52.209Z,19.86
2023-03-31T21:53:18.554Z,19.86
2023-03-31T21:55:44.808Z,19.85
2023-03-31T21:58:11.064Z,19.84
2023-03-31T22:00:37.289Z,19.84
2023-03-31T22:03:21.989Z,19.76
2023-03-31T22:05:49.818Z,19.67
2023-03-31T22:08:16.221Z,19.58
2023-03-31T22:10:42.485Z,19.49
2023-03-31T22:13:08.751Z,19.42
2023-03-31T22:15:35.203Z,19.34
2023-03-31T22:18:01.704Z,19.27
2023-03-31T22:20:31.668Z,19.22
2023-03-31T22:22:57.993Z,19.17
2023-03-31T22:25:24.271Z,19.10
2023-03-31T22:27:50.534Z,19.05
2023-03-31T22:30:16.939Z,19.01
2023-03-31T22:32:43.752Z,18.96
2023-03-31T22:35:10.596Z,18.91
2023-03-31T22:37:37.177Z,18.87
2023-03-31T22:40:03.537Z,18.82
2023-03-31T22:42:29.794Z,18.78
2023-03-31T22:44:56.209Z,18.75
2023-03-31T22:47:22.733Z,18.71
2023-03-31T22:49:49.028Z,18.68
2023-03-31T22:52:15.471Z,18.63
2023-03-31T22:54:41.875Z,18.61
2023-03-31T22:57:08.464Z,18.58
2023-03-31T22:59:34.834Z,18.54
2023-03-31T23:02:01.162Z,18.51
2023-03-31T23:04:27.676Z,18.47
2023-03-31T23:06:54.213Z,18.43
2023-03-31T23:09:20.483Z,18.40
2023-03-31T23:11:46.855Z,18.38
2023-03-31T23:14:13.142Z,18.35
2023-03-31T23:16:39.442Z,18.32
2023-03-31T23:19:05.826Z,18.30
2023-03-31T23:21:32.281Z,18.27
2023-03-31T23:23:58.623Z,18.22
2023-03-31T23:26:24.955Z,18.19
2023-03-31T23:28:51.492Z,18.16
2023-03-31T23:31:17.849Z,18.13
2023-03-31T23:33:44.180Z,18.12
2023-03-31T23:36:10.574Z,18.10
2023-03-31T23:38:36.945Z,18.08
2023-03-31T23:41:03.262Z,18.06
2023-03-31T23:43:29.768Z,18.04
2023-03-31T23:45:56.333Z,18.02
2023-03-31T23:48:23.276Z,17.98
2023-03-31T23:50:49.773Z,17.96
2023-03-31T23:53:16.055Z,17.94
2023-03-31T23:55:42.587Z,17.93
2023-03-31T23:58:09.026Z,17.90
